createdAt,value
2023-04-09T00:01:38.241Z,102783.38
2023-04-09T00:04:43.360Z,102784.28
2023-04-09T00:07:46.944Z,102785.09
2023-04-09T00:10:50.507Z,102783.38
2023-04-09T00:13:54.046Z,102774.66
2023-04-09T00:16:57.610Z,102774.69
2023-04-09T00:20:02.491Z,102779.97
2023-04-09T00:23:06.166Z,102781.75
2023-04-09T00:26:09.981Z,102778.16
2023-04-09T00:29:13.523Z,102779.88
2023-04-09T00:32:17.284Z,102778.16
2023-04-09T00:35:22.539Z,102779.09
2023-04-09T00:38:26.026Z,102773.84
2023-04-09T00:41:29.640Z,102765.09
2023-04-09T00:44:33.242Z,102768.63
2023-04-09T00:47:37.487Z,102771.28
2023-04-09T00:50:43.165Z,102770.34
2023-04-09T00:53:47.693Z,102772.97
2023-04-09T00:56:51.590Z,102767.72
2023-04-09T00:59:55.287Z,102760.81
2023-04-09T01:03:01.040Z,102763.41
2023-04-09T01:06:16.564Z,102765.94
2023-04-09T01:09:28.901Z,102766.81
2023-04-09T01:12:40.084Z,102759.00
2023-04-09T01:15:53.579Z,102761.63
2023-04-09T01:19:08.141Z,102760.63
2023-04-09T01:22:57.756Z,102762.44
2023-04-09T01:26:08.692Z,102765.09
2023-04-09T01:29:18.713Z,102763.44
2023-04-09T01:32:24.768Z,102760.72
2023-04-09T01:35:30.210Z,102759.06
2023-04-09T01:38:36.966Z,102758.09
2023-04-09T01:41:42.575Z,102751.97
2023-04-09T01:44:48.389Z,102749.38
2023-04-09T01:47:52.920Z,102753.66
2023-04-09T01:50:57.248Z,102752.78
2023-04-09T01:54:01.058Z,102760.63
2023-04-09T01:57:04.659Z,102753.66
2023-04-09T02:00:13.040Z,102754.47
2023-04-09T02:03:23.233Z,102755.34
2023-04-09T02:06:38.144Z,102750.06
2023-04-09T02:09:44.382Z,102756.13
2023-04-09T02:12:52.593Z,102750.06
2023-04-09T02:16:00.862Z,102752.69
2023-04-09T02:19:04.533Z,102748.28
2023-04-09T02:22:08.128Z,102751.81
2023-04-09T02:25:11.681Z,102750.03
2023-04-09T02:28:15.480Z,102745.72
2023-04-09T02:31:20.445Z,102752.78
2023-04-09T02:34:24.543Z,102744.03
2023-04-09T02:37:28.056Z,102741.47
2023-04-09T02:40:31.741Z,102752.72
2023-04-09T02:43:35.485Z,102745.78
2023-04-09T02:46:41.083Z,102740.56
2023-04-09T02:49:44.650Z,102739.63
2023-04-09T02:52:48.696Z,102741.34
2023-04-09T02:55:52.321Z,102734.41
2023-04-09T02:58:55.878Z,102733.47
2023-04-09T03:02:00.913Z,102720.47
2023-04-09T03:05:04.929Z,102728.34
2023-04-09T03:08:08.517Z,102721.38
2023-04-09T03:11:12.027Z,102717.09
2023-04-09T03:14:15.571Z,102711.78
2023-04-09T03:17:20.496Z,102714.47
2023-04-09T03:20:24.068Z,102714.53
2023-04-09T03:23:27.629Z,102704.94
2023-04-09T03:26:36.238Z,102705.75
2023-04-09T03:29:39.721Z,102700.53
2023-04-09T03:32:44.665Z,102693.63
2023-04-09T03:35:48.260Z,102704.03
2023-04-09T03:38:52.219Z,102697.09
2023-04-09T03:41:57.903Z,102697.06
2023-04-09T03:45:01.490Z,102694.50
2023-04-09T03:48:06.662Z,102687.47
2023-04-09T03:51:13.927Z,102690.09
2023-04-09T03:54:17.445Z,102687.50
2023-04-09T03:57:21.109Z,102674.50
2023-04-09T04:00:24.635Z,102681.44
2023-04-09T04:03:29.963Z,102674.50
2023-04-09T04:06:36.046Z,102676.22
2023-04-09T04:09:39.524Z,102675.34
2023-04-09T04:12:42.986Z,102676.19
2023-04-09T04:15:46.525Z,102680.59
2023-04-09T04:18:51.765Z,102687.47
2023-04-09T04:21:55.705Z,102690.03
2023-04-09T04:24:59.412Z,102691.75
2023-04-09T04:28:02.901Z,102697.84
2023-04-09T04:31:10.944Z,102698.72
2023-04-09T04:34:15.907Z,102696.94
2023-04-09T04:37:19.555Z,102699.50
2023-04-09T04:40:23.386Z,102701.16
2023-04-09T04:43:26.826Z,102705.53
2023-04-09T04:46:30.426Z,102715.09
2023-04-09T04:49:35.271Z,102718.53
2023-04-09T04:52:40.493Z,102716.75
2023-04-09T04:55:44.135Z,102709.78
2023-04-09T04:58:50.917Z,102710.59
2023-04-09T05:01:54.650Z,102709.63
2023-04-09T05:04:59.614Z,102718.31
2023-04-09T05:08:03.122Z,102720.81
2023-04-09T05:11:06.841Z,102730.38
2023-04-09T05:14:10.450Z,102729.56
2023-04-09T05:17:14.036Z,102728.63
2023-04-09T05:20:18.921Z,102731.28
2023-04-09T05:23:22.722Z,102731.31
2023-04-09T05:26:27.157Z,102732.28
2023-04-09T05:29:30.793Z,102729.94
2023-04-09T05:32:34.392Z,102734.09
2023-04-09T05:35:41.777Z,102727.25
2023-04-09T05:38:45.973Z,102739.34
2023-04-09T05:41:50.124Z,102726.34
2023-04-09T05:44:53.746Z,102729.06
2023-04-09T05:47:57.592Z,102730.03
2023-04-09T05:51:02.558Z,102729.16
2023-04-09T05:54:06.154Z,102738.78
2023-04-09T05:57:09.880Z,102734.53
2023-04-09T06:00:15.208Z,102734.47
2023-04-09T06:03:18.887Z,102736.22
2023-04-09T06:06:23.973Z,102732.91
2023-04-09T06:09:27.966Z,102733.00
2023-04-09T06:12:31.628Z,102730.50
2023-04-09T06:15:35.184Z,102727.25
2023-04-09T06:18:39.105Z,102731.47
2023-04-09T06:21:44.061Z,102726.34
2023-04-09T06:24:47.792Z,102733.50
2023-04-09T06:27:51.621Z,102729.00
2023-04-09T06:30:55.560Z,102733.53
2023-04-09T06:33:59.037Z,102737.00
2023-04-09T06:37:04.095Z,102733.41
2023-04-09T06:40:09.403Z,102742.09
2023-04-09T06:43:13.165Z,102742.31
2023-04-09T06:46:20.152Z,102728.44
2023-04-09T06:49:24.148Z,102724.88
2023-04-09T06:52:29.114Z,102726.72
2023-04-09T06:55:32.667Z,102740.00
2023-04-09T06:58:36.745Z,102733.16
2023-04-09T07:01:40.965Z,102725.41
2023-04-09T07:04:44.673Z,102732.19
2023-04-09T07:07:49.765Z,102727.09
2023-04-09T07:10:53.834Z,102739.19
2023-04-09T07:13:57.502Z,102734.78
2023-04-09T07:17:01.008Z,102739.91
2023-04-09T07:20:05.094Z,102745.25
2023-04-09T07:23:16.665Z,102736.50
2023-04-09T07:26:20.490Z,102736.56
2023-04-09T07:29:24.329Z,102747.94
2023-04-09T07:32:29.218Z,102741.16
2023-04-09T07:35:34.781Z,102733.41
2023-04-09T07:38:39.828Z,102745.59
2023-04-09T07:41:43.764Z,102738.47
2023-04-09T07:44:48.598Z,102738.53
2023-04-09T07:47:52.608Z,102733.31
2023-04-09T07:50:56.350Z,102736.94
2023-04-09T07:54:01.326Z,102735.94
2023-04-09T07:57:05.097Z,102739.38
2023-04-09T08:00:10.479Z,102742.81
2023-04-09T08:03:14.389Z,102737.63
2023-04-09T08:06:18.349Z,102743.03
2023-04-09T08:09:23.422Z,102739.50
2023-04-09T08:12:27.180Z,102744.63
2023-04-09T08:15:30.787Z,102747.25
2023-04-09T08:18:34.258Z,102745.53
2023-04-09T08:21:40.472Z,102748.25
2023-04-09T08:24:45.596Z,102746.50
2023-04-09T08:27:49.185Z,102739.47
2023-04-09T08:30:52.733Z,102734.31
2023-04-09T08:33:56.514Z,102738.72
2023-04-09T08:37:00.451Z,102737.78
2023-04-09T08:40:06.213Z,102730.63
2023-04-09T08:43:15.770Z,102729.81
2023-04-09T08:46:20.585Z,102723.56
2023-04-09T08:49:24.385Z,102733.16
2023-04-09T08:52:34.867Z,102732.25
2023-04-09T08:55:39.772Z,102743.03
2023-04-09T08:58:45.995Z,102740.38
2023-04-09T09:01:54.326Z,102734.19
2023-04-09T09:05:00.979Z,102729.03
2023-04-09T09:08:04.643Z,102729.81
2023-04-09T09:11:09.585Z,102727.94
2023-04-09T09:14:15.610Z,102728.13
2023-04-09T09:17:20.432Z,102718.22
2023-04-09T09:20:25.661Z,102711.91
2023-04-09T09:23:37.543Z,102713.09
2023-04-09T09:26:43.763Z,102706.47
2023-04-09T09:29:47.377Z,102714.03
2023-04-09T09:32:54.966Z,102712.22
2023-04-09T09:35:58.716Z,102704.94
2023-04-09T09:39:09.903Z,102708.63
2023-04-09T09:42:14.780Z,102707.31
2023-04-09T09:45:38.421Z,102701.09
2023-04-09T09:48:43.482Z,102708.38
2023-04-09T09:51:47.081Z,102708.16
2023-04-09T09:54:54.205Z,102711.72
2023-04-09T09:58:03.668Z,102708.25
2023-04-09T10:01:12.011Z,102698.72
2023-04-09T10:04:17.602Z,102696.78
2023-04-09T10:07:24.094Z,102693.25
2023-04-09T10:10:28.942Z,102698.81
2023-04-09T10:13:38.896Z,102690.53
2023-04-09T10:16:43.636Z,102687.63
2023-04-09T10:20:07.533Z,102686.75
2023-04-09T10:23:22.455Z,102675.03
2023-04-09T10:26:30.897Z,102675.47
2023-04-09T10:29:35.997Z,102674.44
2023-04-09T10:32:40.036Z,102674.94
2023-04-09T10:35:44.323Z,102667.06
2023-04-09T10:38:48.799Z,102666.81
2023-04-09T10:41:54.723Z,102663.16
2023-04-09T10:48:26.124Z,102668.22
2023-04-09T10:51:29.961Z,102664.13
2023-04-09T10:54:46.298Z,102658.44
2023-04-09T10:57:50.091Z,102653.03
2023-04-09T11:00:57.043Z,102657.59
2023-04-09T11:04:17.667Z,102652.19
2023-04-09T11:07:24.869Z,102652.00
2023-04-09T11:10:28.500Z,102642.25
2023-04-09T11:13:34.326Z,102637.84
2023-04-09T11:16:39.545Z,102633.75
2023-04-09T11:19:43.337Z,102624.41
2023-04-09T11:22:47.112Z,102631.91
2023-04-09T11:25:52.055Z,102623.19
2023-04-09T11:28:59.186Z,102620.97
2023-04-09T11:32:05.315Z,102619.84
2023-04-09T11:35:14.347Z,102624.53
2023-04-09T11:38:18.020Z,102614.53
2023-04-09T11:41:34.340Z,102622.16
2023-04-09T11:44:37.902Z,102608.44
2023-04-09T11:47:44.992Z,102611.69
2023-04-09T11:50:49.250Z,102614.91
2023-04-09T11:53:52.858Z,102612.34
2023-04-09T11:56:57.469Z,102605.31
2023-04-09T12:00:03.104Z,102605.91
2023-04-09T12:03:11.970Z,102604.78
2023-04-09T12:06:15.812Z,102608.47
2023-04-09T12:09:19.384Z,102610.03
2023-04-09T12:12:25.798Z,102604.94
2023-04-09T12:15:34.550Z,102606.34
2023-04-09T12:18:40.082Z,102603.94
2023-04-09T12:21:48.165Z,102596.69
2023-04-09T12:24:51.814Z,102592.44
2023-04-09T12:27:56.955Z,102597.78
2023-04-09T12:31:00.751Z,102588.75
2023-04-09T12:34:07.196Z,102587.88
2023-04-09T12:37:10.754Z,102583.34
2023-04-09T12:40:14.904Z,102572.06
2023-04-09T12:43:18.461Z,102580.88
2023-04-09T12:46:22.319Z,102573.31
2023-04-09T12:49:27.317Z,102571.63
2023-04-09T12:52:30.886Z,102585.59
2023-04-09T12:55:34.695Z,102574.13
2023-04-09T12:58:38.638Z,102568.28
2023-04-09T13:01:43.588Z,102562.84
2023-04-09T13:04:48.733Z,102553.81
2023-04-09T13:07:52.678Z,102549.16
2023-04-09T13:10:56.482Z,102535.13
2023-04-09T13:14:00.204Z,102544.50
2023-04-09T13:17:03.947Z,102532.03
2023-04-09T13:20:10.716Z,102525.13
2023-04-09T13:23:14.442Z,102523.06
2023-04-09T13:26:18.077Z,102528.75
2023-04-09T13:29:22.078Z,102526.88
2023-04-09T13:32:27.359Z,102532.34
2023-04-09T13:35:32.528Z,102516.06
2023-04-09T13:38:36.414Z,102513.94
2023-04-09T13:41:40.547Z,102523.84
2023-04-09T13:44:46.251Z,102511.56
2023-04-09T13:47:50.515Z,102509.00
2023-04-09T13:50:55.525Z,102510.63
2023-04-09T13:53:59.169Z,102512.47
2023-04-09T13:57:03.579Z,102509.94
2023-04-09T14:00:09.424Z,102508.28
2023-04-09T14:03:14.364Z,102512.38
2023-04-09T14:06:19.694Z,102502.31
2023-04-09T14:09:23.245Z,102503.50
2023-04-09T14:12:26.756Z,102503.50
2023-04-09T14:15:30.636Z,102500.66
2023-04-09T14:18:34.270Z,102500.75
2023-04-09T14:21:40.579Z,102489.44
2023-04-09T14:24:44.332Z,102484.81
2023-04-09T14:27:47.827Z,102479.44
2023-04-09T14:30:51.559Z,102481.75
2023-04-09T14:33:55.056Z,102473.84
2023-04-09T14:37:00.061Z,102467.22
2023-04-09T14:40:03.629Z,102463.63
2023-04-09T14:43:07.185Z,102460.72
2023-04-09T14:46:12.061Z,102467.81
2023-04-09T14:49:15.736Z,102465.47
2023-04-09T14:52:20.777Z,102467.88
2023-04-09T14:55:25.831Z,102463.78
2023-04-09T14:58:29.458Z,102465.34
2023-04-09T15:01:33.341Z,102466.44
2023-04-09T15:04:37.121Z,102456.53
2023-04-09T15:07:42.131Z,102453.63
2023-04-09T15:10:45.705Z,102456.81
2023-04-09T15:13:49.699Z,102453.38
2023-04-09T15:16:55.896Z,102450.72
2023-04-09T15:20:00.611Z,102448.22
2023-04-09T15:23:05.571Z,102445.22
2023-04-09T15:26:09.203Z,102454.22
2023-04-09T15:29:12.805Z,102451.22
2023-04-09T15:32:16.460Z,102438.19
2023-04-09T15:35:25.092Z,102436.03
2023-04-09T15:38:30.137Z,102437.06
2023-04-09T15:41:33.893Z,102437.97
2023-04-09T15:44:39.049Z,102438.56
2023-04-09T15:47:42.751Z,102448.94
2023-04-09T15:50:46.755Z,102442.69
2023-04-09T15:53:51.721Z,102441.88
2023-04-09T15:56:55.376Z,102441.31
2023-04-09T15:59:58.953Z,102436.75
2023-04-09T16:03:02.579Z,102428.03
2023-04-09T16:06:07.488Z,102434.69
2023-04-09T16:09:12.822Z,102432.03
2023-04-09T16:12:16.347Z,102432.47
2023-04-09T16:15:20.256Z,102433.59
2023-04-09T16:18:24.401Z,102429.13
2023-04-09T16:21:29.091Z,102425.69
2023-04-09T16:24:34.036Z,102434.81
2023-04-09T16:27:37.623Z,102437.75
2023-04-09T16:30:41.449Z,102448.06
2023-04-09T16:33:44.983Z,102443.94
2023-04-09T16:36:50.664Z,102441.66
2023-04-09T16:39:56.627Z,102452.44
2023-04-09T16:43:00.492Z,102451.00
2023-04-09T16:46:06.523Z,102451.97
2023-04-09T16:49:10.144Z,102447.06
2023-04-09T16:52:13.730Z,102450.41
2023-04-09T16:55:18.803Z,102444.25
2023-04-09T16:58:22.449Z,102440.69
2023-04-09T17:01:26.532Z,102438.94
2023-04-09T17:04:31.752Z,102425.97
2023-04-09T17:07:35.591Z,102428.59
2023-04-09T17:10:40.634Z,102422.56
2023-04-09T17:13:44.989Z,102425.41
2023-04-09T17:16:48.714Z,102427.22
2023-04-09T17:19:53.474Z,102435.16
2023-04-09T17:22:57.575Z,102434.53
2023-04-09T17:26:03.446Z,102438.06
2023-04-09T17:29:07.197Z,102432.81
2023-04-09T17:32:11.012Z,102429.47
2023-04-09T17:35:14.627Z,102432.25
2023-04-09T17:38:21.576Z,102439.19
2023-04-09T17:41:27.802Z,102433.16
2023-04-09T17:44:35.302Z,102435.88
2023-04-09T17:47:39.834Z,102440.44
2023-04-09T17:50:43.531Z,102435.22
2023-04-09T17:53:47.569Z,102433.47
2023-04-09T17:56:53.250Z,102426.63
2023-04-09T17:59:56.767Z,102432.78
2023-04-09T18:03:00.854Z,102431.09
2023-04-09T18:06:04.863Z,102439.84
2023-04-09T18:09:08.612Z,102438.97
2023-04-09T18:12:13.644Z,102440.75
2023-04-09T18:15:18.772Z,102430.25
2023-04-09T18:18:22.418Z,102442.53
2023-04-09T18:21:27.128Z,102438.22
2023-04-09T18:24:30.882Z,102438.22
2023-04-09T18:27:36.009Z,102450.47
2023-04-09T18:30:39.846Z,102454.91
2023-04-09T18:33:43.598Z,102453.16
2023-04-09T18:36:47.387Z,102458.44
2023-04-09T18:39:50.952Z,102456.72
2023-04-09T18:42:56.856Z,102465.47
2023-04-09T18:46:00.438Z,102474.22
2023-04-09T18:49:04.036Z,102489.91
2023-04-09T18:52:09.200Z,102490.78
2023-04-09T18:55:13.764Z,102494.25
2023-04-09T18:58:18.598Z,102482.91
2023-04-09T19:01:23.131Z,102481.19
2023-04-09T19:04:28.298Z,102480.31
2023-04-09T19:07:32.070Z,102483.81
2023-04-09T19:10:36.120Z,102483.81
2023-04-09T19:13:41.669Z,102477.69
2023-04-09T19:16:45.379Z,102484.66
2023-04-09T19:19:49.087Z,102485.53
2023-04-09T19:22:54.590Z,102487.25
2023-04-09T19:25:58.136Z,102484.63
2023-04-09T19:29:03.759Z,102489.88
2023-04-09T19:32:09.296Z,102495.06
2023-04-09T19:35:12.985Z,102491.59
2023-04-09T19:38:17.114Z,102495.06
2023-04-09T19:41:20.753Z,102489.78
2023-04-09T19:44:25.827Z,102488.03
2023-04-09T19:47:29.668Z,102485.41
2023-04-09T19:50:37.858Z,102490.63
2023-04-09T19:53:43.518Z,102481.03
2023-04-09T19:56:47.761Z,102484.50
2023-04-09T19:59:52.643Z,102492.34
2023-04-09T20:02:57.157Z,102487.91
2023-04-09T20:06:00.997Z,102494.03
2023-04-09T20:09:04.669Z,102495.75
2023-04-09T20:12:09.592Z,102502.66
2023-04-09T20:15:15.014Z,102493.06
2023-04-09T20:18:18.510Z,102492.19
2023-04-09T20:21:22.086Z,102487.81
2023-04-09T20:24:27.003Z,102491.28
2023-04-09T20:27:31.417Z,102487.72
2023-04-09T20:30:36.906Z,102483.38
2023-04-09T20:33:40.792Z,102483.34
2023-04-09T20:36:44.407Z,102482.41
2023-04-09T20:39:47.926Z,102488.47
2023-04-09T20:42:52.561Z,102490.22
2023-04-09T20:45:57.901Z,102482.34
2023-04-09T20:49:01.645Z,102479.72
2023-04-09T20:52:05.982Z,102464.06
2023-04-09T20:55:10.968Z,102473.63
2023-04-09T20:58:14.918Z,102471.84
2023-04-09T21:01:20.147Z,102476.13
2023-04-09T21:04:24.747Z,102463.03
2023-04-09T21:07:28.410Z,102463.00
2023-04-09T21:10:32.012Z,102463.91
2023-04-09T21:13:50.442Z,102469.06
2023-04-09T21:16:59.337Z,102467.34
2023-04-09T21:20:02.927Z,102467.28
2023-04-09T21:23:07.445Z,102469.00
2023-04-09T21:26:11.832Z,102464.63
2023-04-09T21:29:15.763Z,102470.69
2023-04-09T21:32:20.859Z,102472.38
2023-04-09T21:35:24.470Z,102464.50
2023-04-09T21:38:27.967Z,102474.88
2023-04-09T21:41:31.521Z,102471.41
2023-04-09T21:44:35.268Z,102464.47
2023-04-09T21:47:40.694Z,102472.19
2023-04-09T21:50:44.250Z,102463.47
2023-04-09T21:53:48.224Z,102462.59
2023-04-09T21:56:51.726Z,102457.34
2023-04-09T21:59:55.352Z,102452.13
2023-04-09T22:03:01.825Z,102448.66
2023-04-09T22:06:06.241Z,102445.22
2023-04-09T22:09:09.689Z,102445.22
2023-04-09T22:12:13.206Z,102437.31
2023-04-09T22:15:17.813Z,102439.03
2023-04-09T22:18:22.662Z,102440.75
2023-04-09T22:21:26.561Z,102428.50
2023-04-09T22:24:33.914Z,102426.78
2023-04-09T22:27:37.875Z,102425.91
2023-04-09T22:30:41.328Z,102432.88
2023-04-09T22:33:46.218Z,102431.09
2023-04-09T22:36:49.980Z,102444.97
2023-04-09T22:39:53.461Z,102442.38
2023-04-09T22:42:57.201Z,102448.41
2023-04-09T22:46:09.494Z,102455.38
2023-04-09T22:49:14.513Z,102457.00
2023-04-09T22:52:18.098Z,102449.22
2023-04-09T22:55:21.857Z,102453.56
2023-04-09T22:58:25.365Z,102455.31
2023-04-09T23:01:29.488Z,102451.00
2023-04-09T23:04:35.019Z,102455.34
2023-04-09T23:07:38.641Z,102457.13
2023-04-09T23:10:42.182Z,102448.44
2023-04-09T23:13:45.792Z,102444.09
2023-04-09T23:16:49.386Z,102444.97
2023-04-09T23:19:54.424Z,102440.66
2023-04-09T23:22:57.993Z,102432.88
2023-04-09T23:26:01.938Z,102430.25
2023-04-09T23:29:05.441Z,102436.34
2023-04-09T23:32:08.931Z,102430.19
2023-04-09T23:35:13.950Z,102421.47
2023-04-09T23:38:17.637Z,102426.72
2023-04-09T23:41:21.333Z,102421.50
2023-04-09T23:44:24.960Z,102417.06
2023-04-09T23:47:28.497Z,102423.97
2023-04-09T23:50:33.524Z,102424.00
2023-04-09T23:53:37.042Z,102417.88
2023-04-09T23:56:40.545Z,102407.44
2023-04-09T23:59:44.043Z,102413.50
